Quick Links (Output Below):   Max & Min Temps   /   Climate Reports   /   Zone Forecasts
River Forecasts   /   Forestry Forecasts   /   Aviation Forecasts   /   Radars   /   Features

Terminal Aerodrome Forecast (Arkadelphia)

Pick a Site:
Arkadelphia | El Dorado | Fayetteville | Fort Smith | Harrison | Highfill | Hot Springs | Jonesboro
Little Rock | Monticello | Mountain Home | Pine Bluff | Texarkana
 Forecast 

KADF 080520Z 0806/0906 30007KT P6SM BKN250
     FM080900 30012G18KT P6SM SCT150
     FM081600 32014G24KT P6SM BKN040
     FM090000 33012G18KT P6SM SCT040=


 Latest METARs (Observations) 
How to Decode METARs
05Z KADF 080456Z AUTO 28005KT 10SM CLR 09/00 A3009 RMK AO2 T00940000
         SLP204
         
04Z KADF 080356Z AUTO 29005KT 10SM CLR 08/01 A3010 RMK AO2 T00830005
         SLP206
         
03Z KADF 080256Z AUTO 30006KT 10SM CLR 11/01 A3010 RMK AO2 53012
         T01050005 SLP208
         
02Z KADF 080156Z AUTO 26003KT 10SM CLR 08/01 A3008 RMK AO2 T00830011
         SLP202
         
01Z KADF 080056Z AUTO 23005KT 10SM CLR 09/01 A3007 RMK AO2 T00940005
         SLP199
         
00Z KADF 072356Z AUTO 23006KT 10SM CLR 12/01 A3007 RMK AO2 55006
         T01160005 10177 20116 SLP198
         
***** Today's Observations (Above) *****


23Z KADF 072256Z AUTO 23011KT 10SM CLR 15/00 A3006 RMK AO2 T01500000
         SLP196
         
22Z KADF 072156Z AUTO 26009KT 10SM CLR 17/M01 A3007 RMK AO2 T01661005
         SLP196
         
21Z KADF 072056Z AUTO 23009KT 10SM CLR 17/01 A3008 RMK AO2 56040
         T01720005 SLP202
         
20Z KADF 071956Z AUTO 24008KT 10SM CLR 16/01 A3012 RMK AO2 T01550011
         SLP214
         
***** Yesterday's Observations (Above) *****


Back to Main Page
http://www.srh.noaa.gov/lzk/qfcst.php

USA.gov is the U.S. government's official web portal to all federal, state and local government web resources and services.